createdAt,value
2019-02-15T00:00:58.626Z,6.50
2019-02-15T00:03:27.068Z,6.50
2019-02-15T00:05:55.452Z,6.50
2019-02-15T00:08:23.827Z,6.50
2019-02-15T00:10:52.224Z,6.40
2019-02-15T00:13:20.629Z,6.50
2019-02-15T00:15:49.032Z,6.40
2019-02-15T00:18:35.622Z,6.40
2019-02-15T00:21:05.637Z,6.40
2019-02-15T00:23:34.010Z,6.50
2019-02-15T00:26:02.428Z,6.50
2019-02-15T00:28:30.808Z,6.50
2019-02-15T00:30:59.203Z,6.50
2019-02-15T00:33:27.597Z,6.40
2019-02-15T00:35:56.195Z,6.40
2019-02-15T00:38:24.591Z,6.40
2019-02-15T00:40:53.000Z,6.40
2019-02-15T00:43:22.532Z,6.40
2019-02-15T00:46:09.348Z,6.40
2019-02-15T00:48:37.731Z,6.30
2019-02-15T00:51:13.921Z,6.40
2019-02-15T00:53:43.990Z,6.40
2019-02-15T00:56:16.449Z,6.30
2019-02-15T00:58:55.001Z,6.40
2019-02-15T01:01:27.708Z,6.30
2019-02-15T01:03:57.787Z,6.30
2019-02-15T01:06:27.820Z,6.20
2019-02-15T01:09:00.560Z,6.20
2019-02-15T01:11:45.692Z,6.20
2019-02-15T01:14:14.108Z,6.20
2019-02-15T01:16:42.490Z,6.20
2019-02-15T01:19:10.868Z,6.20
2019-02-15T01:21:39.283Z,6.20
2019-02-15T01:24:07.657Z,6.10
2019-02-15T01:26:37.713Z,6.10
2019-02-15T01:29:24.484Z,6.00
2019-02-15T01:32:00.564Z,6.10
2019-02-15T01:34:33.514Z,6.00
2019-02-15T01:37:03.575Z,6.00
2019-02-15T01:39:39.476Z,5.90
2019-02-15T01:42:18.497Z,5.90
2019-02-15T01:44:48.515Z,5.90
2019-02-15T01:47:17.660Z,5.80
2019-02-15T01:49:46.056Z,5.80
2019-02-15T01:52:14.473Z,5.80
2019-02-15T01:54:42.848Z,5.70
2019-02-15T01:57:11.241Z,5.70
2019-02-15T01:59:39.651Z,5.60
2019-02-15T02:02:08.035Z,5.60
2019-02-15T02:04:36.592Z,5.50
2019-02-15T02:07:04.969Z,5.50
2019-02-15T02:09:33.371Z,5.40
2019-02-15T02:12:01.767Z,5.40
2019-02-15T02:14:30.165Z,5.40
2019-02-15T02:16:58.555Z,5.30
2019-02-15T02:19:26.962Z,5.30
2019-02-15T02:21:55.378Z,5.20
2019-02-15T02:24:23.795Z,5.20
2019-02-15T02:26:52.199Z,5.10
2019-02-15T02:29:20.584Z,5.10
2019-02-15T02:31:48.979Z,5.00
2019-02-15T02:34:17.407Z,4.90
2019-02-15T02:36:53.567Z,4.80
2019-02-15T02:39:22.033Z,4.70
2019-02-15T02:41:50.405Z,4.60
2019-02-15T02:44:18.806Z,4.70
2019-02-15T02:46:47.211Z,4.70
2019-02-15T02:49:16.088Z,4.70
2019-02-15T02:51:44.492Z,4.70
2019-02-15T02:54:12.859Z,4.70
2019-02-15T02:56:41.277Z,4.70
2019-02-15T02:59:09.642Z,4.70
2019-02-15T03:01:38.066Z,4.60
2019-02-15T03:04:06.433Z,4.60
2019-02-15T03:06:34.841Z,4.50
2019-02-15T03:09:04.587Z,4.40
2019-02-15T03:11:33.008Z,4.40
2019-02-15T03:14:11.073Z,4.40
2019-02-15T03:16:31.437Z,4.30
2019-02-15T03:18:59.869Z,4.30
2019-02-15T03:21:28.230Z,4.20
2019-02-15T03:23:56.644Z,4.10
2019-02-15T03:26:25.009Z,4.00
2019-02-15T03:28:53.394Z,3.90
2019-02-15T03:31:21.790Z,3.80
2019-02-15T03:33:50.188Z,3.80
2019-02-15T03:36:20.204Z,3.70
2019-02-15T03:38:50.249Z,3.70
2019-02-15T03:41:29.490Z,3.60
2019-02-15T03:43:57.899Z,3.60
2019-02-15T03:46:26.483Z,3.50
2019-02-15T03:48:54.875Z,3.50
2019-02-15T03:51:23.247Z,3.40
2019-02-15T03:53:51.725Z,3.40
2019-02-15T03:56:20.131Z,3.30
2019-02-15T03:58:48.509Z,3.20
2019-02-15T04:01:16.886Z,3.10
2019-02-15T04:03:45.292Z,3.10
2019-02-15T04:06:13.677Z,3.00
2019-02-15T04:08:42.073Z,3.00
2019-02-15T04:11:10.485Z,3.00
2019-02-15T04:13:38.856Z,3.00
2019-02-15T04:16:07.256Z,3.00
2019-02-15T04:18:35.678Z,2.90
2019-02-15T04:21:04.062Z,2.90
2019-02-15T04:23:32.416Z,2.90
2019-02-15T04:26:00.934Z,2.80
2019-02-15T04:28:29.323Z,2.80
2019-02-15T04:30:57.708Z,2.70
2019-02-15T04:33:26.098Z,2.70
2019-02-15T04:35:54.621Z,2.70
2019-02-15T04:38:23.041Z,2.70
2019-02-15T04:40:51.474Z,2.60
2019-02-15T04:43:19.824Z,2.50
2019-02-15T04:45:48.285Z,2.40
2019-02-15T04:48:16.603Z,2.40
2019-02-15T04:50:45.028Z,2.40
2019-02-15T04:53:13.408Z,2.40
2019-02-15T04:55:41.830Z,2.40
2019-02-15T04:58:10.307Z,2.50
2019-02-15T05:00:38.680Z,2.50
2019-02-15T05:03:07.054Z,2.50
2019-02-15T05:05:35.467Z,2.50
2019-02-15T05:08:03.881Z,2.50
2019-02-15T05:10:32.259Z,2.50
2019-02-15T05:13:00.682Z,2.40
2019-02-15T05:15:29.047Z,2.40
2019-02-15T05:17:57.447Z,2.30
2019-02-15T05:20:25.837Z,2.30
2019-02-15T05:22:54.357Z,2.20
2019-02-15T05:25:22.743Z,2.20
2019-02-15T05:27:51.119Z,2.20
2019-02-15T05:30:19.511Z,2.20
2019-02-15T05:32:47.899Z,2.20
2019-02-15T05:35:16.314Z,2.20
2019-02-15T05:37:44.702Z,2.20
2019-02-15T05:40:13.107Z,2.20
2019-02-15T05:42:41.499Z,2.30
2019-02-15T05:45:09.929Z,2.30
2019-02-15T05:47:38.333Z,2.20
2019-02-15T05:50:07.351Z,2.20
2019-02-15T05:52:35.744Z,2.10
2019-02-15T05:55:05.186Z,2.00
2019-02-15T05:57:33.599Z,2.00
2019-02-15T06:00:01.974Z,1.90
2019-02-15T06:02:30.406Z,2.00
2019-02-15T06:04:58.782Z,2.10
2019-02-15T06:07:27.173Z,2.10
2019-02-15T06:09:55.566Z,2.10
2019-02-15T06:12:23.997Z,2.10
2019-02-15T06:14:52.375Z,2.10
2019-02-15T06:17:20.751Z,2.10
2019-02-15T06:19:49.162Z,2.10
2019-02-15T06:22:17.546Z,2.10
2019-02-15T06:24:45.938Z,2.10
2019-02-15T06:27:14.339Z,2.00
2019-02-15T06:29:42.714Z,2.00
2019-02-15T06:32:11.124Z,1.90
2019-02-15T06:34:39.525Z,2.00
2019-02-15T06:37:07.908Z,2.00
2019-02-15T06:39:36.352Z,2.00
2019-02-15T06:42:04.716Z,2.00
2019-02-15T06:44:33.082Z,1.90
2019-02-15T06:47:01.503Z,2.00
2019-02-15T06:49:29.878Z,2.00
2019-02-15T06:51:58.272Z,2.00
2019-02-15T06:54:26.653Z,2.00
2019-02-15T06:56:55.085Z,2.00
2019-02-15T06:59:37.166Z,2.00
2019-02-15T07:02:19.210Z,2.00
2019-02-15T07:04:58.339Z,2.20
2019-02-15T07:07:26.744Z,2.20
2019-02-15T07:09:55.137Z,2.30
2019-02-15T07:12:23.520Z,2.30
2019-02-15T07:14:51.923Z,2.40
2019-02-15T07:17:20.300Z,2.50
2019-02-15T07:19:48.713Z,2.50
2019-02-15T07:22:17.124Z,2.60
2019-02-15T07:24:47.210Z,2.70
2019-02-15T07:27:15.810Z,2.80
2019-02-15T07:29:44.186Z,2.90
2019-02-15T07:32:12.571Z,3.00
2019-02-15T07:34:41.001Z,3.10
2019-02-15T07:37:09.383Z,3.20
2019-02-15T07:39:37.803Z,3.20
2019-02-15T07:42:06.184Z,3.30
2019-02-15T07:44:34.563Z,3.40
2019-02-15T07:47:02.987Z,3.50
2019-02-15T07:49:31.373Z,3.60
2019-02-15T07:51:59.780Z,3.70
2019-02-15T07:54:28.179Z,3.80
2019-02-15T07:56:56.605Z,3.90
2019-02-15T07:59:24.990Z,4.00
2019-02-15T08:02:01.651Z,4.00
2019-02-15T08:04:23.412Z,4.10
2019-02-15T08:06:51.912Z,4.20
2019-02-15T08:09:20.287Z,4.30
2019-02-15T08:11:48.666Z,4.40
2019-02-15T08:14:17.691Z,4.50
2019-02-15T08:16:46.259Z,4.60
2019-02-15T08:19:14.673Z,4.70
2019-02-15T08:21:43.043Z,4.70
2019-02-15T08:24:11.444Z,4.80
2019-02-15T08:26:39.838Z,4.90
2019-02-15T08:29:08.233Z,5.00
2019-02-15T08:31:36.624Z,5.00
2019-02-15T08:34:05.224Z,5.00
2019-02-15T08:36:33.627Z,5.10
2019-02-15T08:39:02.001Z,5.10
2019-02-15T08:41:30.414Z,5.30
2019-02-15T08:43:58.787Z,5.40
2019-02-15T08:46:27.197Z,5.40
2019-02-15T08:48:55.646Z,5.50
2019-02-15T08:51:24.095Z,5.60
2019-02-15T08:53:52.479Z,5.70
2019-02-15T08:56:20.854Z,5.70
2019-02-15T08:58:49.258Z,5.80
2019-02-15T09:01:17.776Z,5.80
2019-02-15T09:03:46.157Z,6.00
2019-02-15T09:06:14.528Z,6.00
2019-02-15T09:08:42.911Z,6.10
2019-02-15T09:11:11.293Z,6.20
2019-02-15T09:13:39.704Z,6.30
2019-02-15T09:16:10.358Z,6.30
2019-02-15T09:18:38.154Z,6.40
2019-02-15T09:21:06.671Z,6.50
2019-02-15T09:23:35.061Z,6.50
2019-02-15T09:26:03.422Z,6.60
2019-02-15T09:28:33.486Z,6.70
2019-02-15T09:31:01.864Z,6.70
2019-02-15T09:33:30.252Z,6.80
2019-02-15T09:35:58.648Z,6.80
2019-02-15T09:38:27.027Z,6.90
2019-02-15T09:40:55.457Z,6.90
2019-02-15T09:43:23.834Z,7.00
2019-02-15T09:45:52.256Z,7.10
2019-02-15T09:48:20.724Z,7.20
2019-02-15T09:50:49.121Z,7.20
2019-02-15T09:53:17.513Z,7.30
2019-02-15T09:55:45.911Z,7.40
2019-02-15T09:58:16.340Z,7.50
2019-02-15T10:00:46.036Z,7.70
2019-02-15T10:03:14.398Z,7.80
2019-02-15T10:05:42.811Z,8.00
2019-02-15T10:08:12.117Z,7.90
2019-02-15T10:10:40.549Z,7.90
2019-02-15T10:13:08.931Z,8.00
2019-02-15T10:15:37.357Z,8.00
2019-02-15T10:18:05.735Z,8.00
2019-02-15T10:20:34.104Z,8.00
2019-02-15T10:23:02.495Z,8.10
2019-02-15T10:25:30.925Z,8.30
2019-02-15T10:27:59.335Z,8.30
2019-02-15T10:30:27.752Z,8.20
2019-02-15T10:32:56.130Z,8.30
2019-02-15T10:35:24.545Z,8.40
2019-02-15T10:37:52.955Z,8.50
2019-02-15T10:40:21.334Z,8.60
2019-02-15T10:42:49.745Z,8.70
2019-02-15T10:45:18.120Z,8.70
2019-02-15T10:47:46.535Z,8.80
2019-02-15T10:50:15.491Z,8.80
2019-02-15T10:52:43.907Z,8.80
2019-02-15T10:55:12.284Z,8.80
2019-02-15T10:57:40.686Z,8.80
2019-02-15T11:00:14.011Z,9.00
2019-02-15T11:02:42.404Z,9.00
2019-02-15T11:05:11.147Z,9.10
2019-02-15T11:07:39.606Z,9.10
2019-02-15T11:10:09.261Z,9.20
2019-02-15T11:12:37.657Z,9.30
2019-02-15T11:15:14.152Z,9.30
2019-02-15T11:17:44.237Z,9.40
2019-02-15T11:20:14.838Z,9.60
2019-02-15T11:22:43.365Z,9.70
2019-02-15T11:25:11.937Z,9.80
2019-02-15T11:27:40.312Z,9.90
2019-02-15T11:30:14.113Z,9.90
2019-02-15T11:32:42.537Z,10.00
2019-02-15T11:35:12.195Z,10.00
2019-02-15T11:37:40.624Z,10.10
2019-02-15T11:40:11.935Z,10.20
2019-02-15T11:42:40.325Z,10.30
2019-02-15T11:45:11.048Z,10.20
2019-02-15T11:47:40.599Z,10.20
2019-02-15T11:50:11.234Z,10.30
2019-02-15T11:52:39.631Z,10.40
2019-02-15T11:55:10.569Z,10.50
2019-02-15T11:57:38.973Z,10.60
2019-02-15T12:00:18.438Z,10.70
2019-02-15T12:02:47.428Z,10.70
2019-02-15T12:05:16.044Z,10.70
2019-02-15T12:07:44.475Z,10.60
2019-02-15T12:10:14.152Z,10.70
2019-02-15T12:12:42.600Z,10.80
2019-02-15T12:15:11.112Z,11.00
2019-02-15T12:17:39.501Z,11.00
2019-02-15T12:20:10.460Z,11.00
2019-02-15T12:22:38.837Z,11.10
2019-02-15T12:25:08.007Z,11.10
2019-02-15T12:27:39.585Z,11.20
2019-02-15T12:30:10.780Z,11.10
2019-02-15T12:32:39.207Z,11.00
2019-02-15T12:35:09.254Z,11.00
2019-02-15T12:37:39.994Z,11.00
2019-02-15T12:40:09.921Z,11.10
2019-02-15T12:42:38.543Z,11.10
2019-02-15T12:45:14.876Z,11.10
2019-02-15T12:47:43.400Z,11.10
2019-02-15T12:50:21.436Z,11.10
2019-02-15T12:52:49.816Z,11.10
2019-02-15T12:55:18.223Z,11.00
2019-02-15T12:57:46.620Z,11.20
2019-02-15T13:00:16.104Z,11.20
2019-02-15T13:02:44.493Z,11.20
2019-02-15T13:05:13.739Z,11.40
2019-02-15T13:07:42.158Z,11.30
2019-02-15T13:10:13.245Z,11.40
2019-02-15T13:12:41.629Z,11.40
2019-02-15T13:15:11.454Z,11.40
2019-02-15T13:17:39.893Z,11.50
2019-02-15T13:20:09.519Z,11.40
2019-02-15T13:22:37.931Z,11.40
2019-02-15T13:25:07.372Z,11.40
2019-02-15T13:27:35.761Z,11.30
2019-02-15T13:30:09.670Z,11.30
2019-02-15T13:32:38.067Z,11.30
2019-02-15T13:35:09.371Z,11.50
2019-02-15T13:37:37.762Z,11.50
2019-02-15T13:40:07.968Z,11.40
2019-02-15T13:42:36.391Z,11.40
2019-02-15T13:45:07.773Z,11.30
2019-02-15T13:47:36.171Z,11.30
2019-02-15T13:50:06.807Z,11.30
2019-02-15T13:52:35.310Z,11.30
2019-02-15T13:55:04.100Z,11.40
2019-02-15T13:57:32.497Z,11.40
2019-02-15T14:00:00.883Z,11.50
2019-02-15T14:02:31.005Z,11.50
2019-02-15T14:04:59.579Z,11.50
2019-02-15T14:07:27.985Z,11.50
2019-02-15T14:09:56.406Z,11.70
2019-02-15T14:12:24.792Z,11.70
2019-02-15T14:14:53.202Z,11.70
2019-02-15T14:17:21.571Z,11.80
2019-02-15T14:19:50.003Z,11.80
2019-02-15T14:22:18.443Z,11.80
2019-02-15T14:24:46.900Z,11.80
2019-02-15T14:27:15.290Z,11.80
2019-02-15T14:29:43.696Z,11.90
2019-02-15T14:32:12.084Z,11.90
2019-02-15T14:34:40.510Z,11.90
2019-02-15T14:37:08.917Z,12.10
2019-02-15T14:39:37.384Z,12.20
2019-02-15T14:42:05.776Z,12.20
2019-02-15T14:44:34.178Z,12.20
2019-02-15T14:47:02.634Z,12.20
2019-02-15T14:49:31.078Z,12.10
2019-02-15T14:51:59.507Z,12.00
2019-02-15T14:54:27.939Z,12.10
2019-02-15T14:56:56.471Z,12.00
2019-02-15T14:59:24.789Z,12.00
2019-02-15T15:01:53.387Z,11.90
2019-02-15T15:04:21.766Z,11.80
2019-02-15T15:06:50.175Z,11.80
2019-02-15T15:09:18.749Z,11.80
2019-02-15T15:11:47.442Z,11.70
2019-02-15T15:14:15.810Z,11.60
2019-02-15T15:16:44.374Z,11.60
2019-02-15T15:19:12.803Z,11.50
2019-02-15T15:21:41.216Z,11.40
2019-02-15T15:24:09.632Z,11.40
2019-02-15T15:26:38.069Z,11.30
2019-02-15T15:29:06.466Z,11.20
2019-02-15T15:31:34.906Z,11.20
2019-02-15T15:34:03.289Z,11.10
2019-02-15T15:36:31.702Z,11.00
2019-02-15T15:39:00.096Z,10.90
2019-02-15T15:41:28.482Z,10.90
2019-02-15T15:43:56.940Z,10.90
2019-02-15T15:46:25.343Z,10.80
2019-02-15T15:48:53.770Z,10.70
2019-02-15T15:51:22.189Z,10.60
2019-02-15T15:53:50.641Z,10.50
2019-02-15T15:56:19.022Z,10.50
2019-02-15T15:58:47.427Z,10.40
2019-02-15T16:01:15.882Z,10.30
2019-02-15T16:03:44.273Z,10.20
2019-02-15T16:06:12.700Z,10.20
2019-02-15T16:08:41.095Z,10.10
2019-02-15T16:11:09.512Z,10.10
2019-02-15T16:13:37.948Z,10.00
2019-02-15T16:16:06.326Z,10.00
2019-02-15T16:18:35.161Z,9.90
2019-02-15T16:21:03.613Z,9.80
2019-02-15T16:23:32.031Z,9.70
2019-02-15T16:26:00.418Z,9.70
2019-02-15T16:28:28.844Z,9.60
2019-02-15T16:30:57.254Z,9.40
2019-02-15T16:33:25.848Z,9.30
2019-02-15T16:35:54.231Z,9.20
2019-02-15T16:38:22.604Z,9.20
2019-02-15T16:40:51.021Z,9.10
2019-02-15T16:43:19.394Z,8.90
2019-02-15T16:45:47.813Z,8.80
2019-02-15T16:48:16.188Z,8.70
2019-02-15T16:50:44.613Z,8.60
2019-02-15T16:53:12.978Z,8.50
2019-02-15T16:55:42.521Z,8.40
2019-02-15T16:58:10.959Z,8.30
2019-02-15T17:00:39.306Z,8.20
2019-02-15T17:03:07.720Z,8.10
2019-02-15T17:05:36.144Z,8.00
2019-02-15T17:08:04.540Z,7.80
2019-02-15T17:10:37.528Z,7.80
2019-02-15T17:13:05.991Z,7.70
2019-02-15T17:15:34.425Z,7.50
2019-02-15T17:18:02.860Z,7.40
2019-02-15T17:20:32.844Z,7.30
2019-02-15T17:23:01.244Z,7.20
2019-02-15T17:25:29.649Z,7.20
2019-02-15T17:27:58.051Z,7.20
2019-02-15T17:30:28.194Z,7.20
2019-02-15T17:32:56.633Z,7.10
2019-02-15T17:35:25.004Z,7.00
2019-02-15T17:37:53.387Z,7.00
2019-02-15T17:40:21.869Z,6.90
2019-02-15T17:42:50.239Z,6.80
2019-02-15T17:45:18.645Z,6.70
2019-02-15T17:47:47.062Z,6.60
2019-02-15T17:50:15.442Z,6.60
2019-02-15T17:52:43.904Z,6.60
2019-02-15T17:55:12.309Z,6.50
2019-02-15T17:57:40.708Z,6.40
2019-02-15T18:00:14.543Z,6.40
2019-02-15T18:02:42.999Z,6.30
2019-02-15T18:05:16.906Z,6.30
2019-02-15T18:07:47.255Z,6.30
2019-02-15T18:10:15.655Z,6.20
2019-02-15T18:12:44.038Z,6.20
2019-02-15T18:15:12.461Z,6.10
2019-02-15T18:17:40.845Z,6.00
2019-02-15T18:20:09.528Z,6.00
2019-02-15T18:22:39.348Z,5.90
2019-02-15T18:25:23.345Z,5.90
2019-02-15T18:29:06.982Z,5.90
2019-02-15T18:30:26.045Z,5.90
2019-02-15T18:32:54.459Z,5.90
2019-02-15T18:35:22.977Z,5.90
2019-02-15T18:37:53.881Z,5.80
2019-02-15T18:40:22.258Z,5.80
2019-02-15T18:42:50.685Z,5.80
2019-02-15T18:45:19.045Z,5.80
2019-02-15T18:47:47.476Z,5.70
2019-02-15T18:50:15.873Z,5.70
2019-02-15T18:52:44.252Z,5.60
2019-02-15T18:55:12.834Z,5.60
2019-02-15T18:57:41.287Z,5.60
2019-02-15T19:00:15.539Z,5.50
2019-02-15T19:02:45.760Z,5.60
2019-02-15T19:05:14.362Z,5.60
2019-02-15T19:07:42.825Z,5.60
2019-02-15T19:10:14.299Z,5.50
2019-02-15T19:12:42.709Z,5.40
2019-02-15T19:15:13.682Z,5.30
2019-02-15T19:17:42.056Z,5.30
2019-02-15T19:20:12.627Z,5.30
2019-02-15T19:22:41.022Z,5.30
2019-02-15T19:25:14.372Z,5.20
2019-02-15T19:27:42.947Z,5.20
2019-02-15T19:30:14.099Z,5.10
2019-02-15T19:32:42.619Z,5.00
2019-02-15T19:35:11.194Z,5.00
2019-02-15T19:37:39.643Z,5.00
2019-02-15T19:40:10.987Z,5.00
2019-02-15T19:42:40.381Z,5.00
2019-02-15T19:45:11.019Z,5.00
2019-02-15T19:47:39.424Z,5.00
2019-02-15T19:50:10.911Z,5.00
2019-02-15T19:52:41.027Z,5.00
2019-02-15T19:55:10.573Z,5.00
2019-02-15T19:57:42.053Z,5.00
2019-02-15T20:00:19.167Z,5.10
2019-02-15T20:02:47.577Z,5.00
2019-02-15T20:05:15.969Z,5.00
2019-02-15T20:07:44.440Z,5.00
2019-02-15T20:10:22.283Z,5.10
2019-02-15T20:12:50.690Z,5.20
2019-02-15T20:15:19.090Z,5.40
2019-02-15T20:17:47.515Z,5.40
2019-02-15T20:20:17.403Z,5.50
2019-02-15T20:22:46.076Z,5.50
2019-02-15T20:25:14.513Z,5.50
2019-02-15T20:27:42.949Z,5.50
2019-02-15T20:30:20.519Z,5.40
2019-02-15T20:32:48.938Z,5.40
2019-02-15T20:35:17.393Z,5.40
2019-02-15T20:37:45.772Z,5.50
2019-02-15T20:40:14.451Z,5.50
2019-02-15T20:42:42.837Z,5.60
2019-02-15T20:45:22.471Z,5.50
2019-02-15T20:47:50.884Z,5.40
2019-02-15T20:50:19.506Z,5.30
2019-02-15T20:52:47.938Z,5.20
2019-02-15T20:55:18.040Z,5.20
2019-02-15T20:57:46.493Z,5.10
2019-02-15T21:00:30.719Z,5.10
2019-02-15T21:02:59.278Z,5.00
2019-02-15T21:05:27.663Z,4.90
2019-02-15T21:07:56.056Z,4.80
2019-02-15T21:10:24.454Z,4.60
2019-02-15T21:12:52.899Z,4.50
2019-02-15T21:15:21.285Z,4.50
2019-02-15T21:17:49.674Z,4.40
2019-02-15T21:20:18.071Z,4.30
2019-02-15T21:22:46.495Z,4.30
2019-02-15T21:25:18.061Z,4.20
2019-02-15T21:27:46.459Z,4.20
2019-02-15T21:30:16.446Z,4.20
2019-02-15T21:32:44.837Z,4.10
2019-02-15T21:35:13.257Z,4.10
2019-02-15T21:37:41.669Z,4.00
2019-02-15T21:40:12.553Z,4.00
2019-02-15T21:42:40.951Z,3.90
2019-02-15T21:45:10.823Z,3.80
2019-02-15T21:47:39.203Z,3.80
2019-02-15T21:50:17.158Z,3.80
2019-02-15T21:52:44.273Z,3.70
2019-02-15T21:55:13.744Z,3.70
2019-02-15T21:57:42.161Z,3.70
2019-02-15T22:00:21.422Z,3.80
2019-02-15T22:02:49.960Z,3.70
2019-02-15T22:05:18.373Z,3.60
2019-02-15T22:07:46.792Z,3.60
2019-02-15T22:10:15.190Z,3.70
2019-02-15T22:12:43.774Z,3.70
2019-02-15T22:15:13.883Z,3.70
2019-02-15T22:17:42.282Z,3.60
2019-02-15T22:20:13.602Z,3.60
2019-02-15T22:22:42.015Z,3.50
2019-02-15T22:25:10.399Z,3.50
2019-02-15T22:27:38.805Z,3.40
2019-02-15T22:30:13.345Z,3.30
2019-02-15T22:32:42.995Z,3.20
2019-02-15T22:35:11.037Z,3.20
2019-02-15T22:37:41.566Z,3.20
2019-02-15T22:40:27.597Z,3.10
2019-02-15T22:42:57.522Z,3.10
2019-02-15T22:45:25.919Z,3.10
2019-02-15T22:47:54.306Z,3.10
2019-02-15T22:50:25.067Z,3.10
2019-02-15T22:52:53.458Z,3.10
2019-02-15T22:55:21.873Z,3.00
2019-02-15T22:57:50.375Z,3.10
2019-02-15T23:00:24.643Z,2.90
2019-02-15T23:02:53.047Z,2.90
2019-02-15T23:05:21.476Z,3.00
2019-02-15T23:07:49.861Z,2.90
2019-02-15T23:10:18.255Z,2.80
2019-02-15T23:12:46.681Z,2.70
2019-02-15T23:15:15.064Z,2.70
2019-02-15T23:17:43.444Z,2.60
2019-02-15T23:20:11.868Z,2.60
2019-02-15T23:22:40.462Z,2.60
2019-02-15T23:25:08.911Z,2.60
2019-02-15T23:27:44.688Z,2.50
2019-02-15T23:30:13.111Z,2.50
2019-02-15T23:32:41.499Z,2.40
2019-02-15T23:35:11.540Z,2.30
2019-02-15T23:37:39.929Z,2.20
2019-02-15T23:40:08.353Z,2.20
2019-02-15T23:42:36.749Z,2.20
2019-02-15T23:45:07.457Z,2.20
2019-02-15T23:47:35.855Z,2.20
2019-02-15T23:50:05.688Z,2.20
2019-02-15T23:52:34.105Z,2.20
2019-02-15T23:55:02.507Z,2.10
2019-02-15T23:57:30.913Z,2.10
2019-02-15T23:59:59.306Z,2.10
